Time;durP1;ratioP1;P1;durP2;ratioP2;P2;SDS_P1;SDS_P2;PMS_P1;PMS_P2;Temp;Humidity;BMP_temperature;BMP_pressure;BME280_temperature;BME280_humidity;BME280_pressure;Samples;Min_cycle;Max_cycle;Signal;HPM_P1;HPM_P2
2023/05/11 00:07:40;;;;;;;1.30;1.20;;;;;;;22.70;42.15;100410.91;41430562;28;20053;-83
2023/05/11 00:27:44;;;;;;;1.42;1.33;;;;;;;22.71;42.10;100409.09;41428579;28;20050;-86
2023/05/11 00:47:47;;;;;;;1.20;1.10;;;;;;;22.68;41.96;100398.81;41411864;28;20061;-84
2023/05/11 01:08:29;;;;;;;1.30;1.20;;;;;;;22.66;42.09;100400.72;41405599;28;20038;-84
2023/05/11 01:28:49;;;;;;;1.10;1.00;;;;;;;22.63;42.42;100399.19;41347395;28;20062;-83
2023/05/11 02:04:12;;;;;;;1.30;1.20;;;;;;;22.61;42.52;100389.72;41647399;27;20120;-82
2023/05/11 02:24:18;;;;;;;1.20;1.10;;;;;;;22.61;42.38;100379.19;41681017;28;20053;-83
2023/05/11 02:44:20;;;;;;;1.40;1.20;;;;;;;22.56;42.50;100374.28;41665573;28;20582;-82
2023/05/11 03:04:21;;;;;;;1.30;1.20;;;;;;;22.56;42.66;100361.09;41608782;28;20050;-86
2023/05/11 03:24:24;;;;;;;1.73;1.20;;;;;;;22.55;42.36;100370.78;41556120;28;20145;-83
2023/05/11 03:44:25;;;;;;;1.27;1.17;;;;;;;22.55;41.96;100376.06;41554646;28;20072;-82
2023/05/11 04:04:30;;;;;;;2.35;1.05;;;;;;;22.67;44.04;100397.13;41492873;28;20041;-83
2023/05/11 04:24:31;;;;;;;3.72;1.13;;;;;;;22.67;44.21;100400.59;41495913;28;20498;-83
2023/05/11 04:44:31;;;;;;;3.95;1.17;;;;;;;22.71;44.54;100420.47;41507335;28;20050;-82
2023/05/11 05:04:32;;;;;;;6.72;2.28;;;;;;;22.70;42.22;100423.25;41527046;28;20049;-81
2023/05/11 05:24:32;;;;;;;6.88;1.90;;;;;;;22.70;42.84;100421.47;41543682;28;20049;-82
2023/05/11 05:44:33;;;;;;;5.53;1.77;;;;;;;22.66;43.37;100435.88;41558943;28;21638;-82
2023/05/11 06:04:36;;;;;;;5.38;1.70;;;;;;;22.67;43.82;100444.66;41543919;28;20050;-80
2023/05/11 06:24:37;;;;;;;2.45;1.30;;;;;;;22.68;43.35;100449.78;41512866;28;20097;-83
2023/05/11 06:44:38;;;;;;;2.67;1.60;;;;;;;22.68;43.38;100444.50;41550003;28;20041;-83
2023/05/11 07:04:39;;;;;;;5.85;1.95;;;;;;;22.73;43.18;100435.34;41535210;28;20046;-83
2023/05/11 07:24:45;;;;;;;2.75;1.95;;;;;;;22.74;43.30;100421.19;41551101;28;20156;-84
2023/05/11 07:44:46;;;;;;;4.03;1.90;;;;;;;22.82;43.74;100421.41;41553095;28;20079;-87
2023/05/11 08:04:46;;;;;;;2.05;1.63;;;;;;;22.85;43.54;100421.13;41544725;28;20378;-89
2023/05/11 08:24:48;;;;;;;3.22;1.80;;;;;;;22.89;44.00;100412.00;41544514;28;20050;-85
2023/05/11 08:44:49;;;;;;;3.80;2.03;;;;;;;22.93;43.66;100381.72;41540333;28;20033;-85
2023/05/11 09:04:50;;;;;;;13.27;4.18;;;;;;;22.97;43.27;100367.31;41613246;28;20041;-88
2023/05/11 09:24:51;;;;;;;7.60;5.57;;;;;;;23.05;43.15;100360.53;41618332;28;20037;-87
2023/05/11 09:44:52;;;;;;;10.10;7.15;;;;;;;23.10;43.19;100345.13;41619954;28;20048;-83
2023/05/11 10:04:55;;;;;;;9.00;6.28;;;;;;;23.15;43.11;100335.00;41558666;28;20052;-79
2023/05/11 10:24:57;;;;;;;4.32;2.28;;;;;;;22.76;34.34;100330.34;41544087;28;20069;-76
2023/05/11 10:45:21;;;;;;;8.38;1.50;;;;;;;23.01;33.58;100291.31;41527192;28;20084;-78
2023/05/11 11:05:34;;;;;;;3.25;1.42;;;;;;;23.28;34.09;100274.88;41525168;28;20405;-78
2023/05/11 11:25:52;;;;;;;1.83;1.48;;;;;;;23.37;32.55;100270.56;41547620;28;21693;-79
2023/05/11 11:45:58;;;;;;;4.47;1.65;;;;;;;23.50;32.20;100257.09;41541811;28;21783;-78
2023/05/11 12:06:00;;;;;;;4.38;1.48;;;;;;;23.44;32.39;100253.19;41539419;28;20046;-79
2023/05/11 12:26:07;;;;;;;4.88;1.40;;;;;;;23.51;32.43;100237.63;41533408;28;20053;-81
2023/05/11 12:46:08;;;;;;;2.45;1.30;;;;;;;23.61;32.10;100221.78;41546372;28;20102;-81
2023/05/11 13:06:21;;;;;;;6.75;1.73;;;;;;;23.83;32.10;100202.16;41544556;28;20061;-77
2023/05/11 13:26:23;;;;;;;2.08;1.65;;;;;;;23.92;31.63;100177.53;41511180;28;20413;-85
2023/05/11 13:46:25;;;;;;;4.53;1.63;;;;;;;24.04;31.25;100159.69;41534274;28;20111;-79
2023/05/11 14:06:27;;;;;;;2.28;1.38;;;;;;;23.90;31.85;100149.53;41487812;28;20191;-79
2023/05/11 14:26:27;;;;;;;4.47;1.20;;;;;;;23.81;31.70;100140.63;41492489;28;20412;-76
2023/05/11 14:46:28;;;;;;;2.28;1.10;;;;;;;23.80;31.87;100131.03;41524668;28;20113;-80
2023/05/11 15:06:29;;;;;;;5.15;1.80;;;;;;;23.82;32.77;100143.13;41539642;28;20046;-78
2023/05/11 15:26:29;;;;;;;2.67;1.40;;;;;;;23.81;33.11;100141.50;41536903;28;20084;-81
2023/05/11 15:46:30;;;;;;;6.80;1.40;;;;;;;23.75;32.43;100146.50;41558537;28;20045;-82
2023/05/11 16:06:32;;;;;;;7.05;2.50;;;;;;;23.63;32.98;100161.66;41499766;28;20054;-79
2023/05/11 16:26:33;;;;;;;9.30;2.78;;;;;;;23.64;34.40;100158.06;41538885;28;20046;-78
2023/05/11 16:46:33;;;;;;;5.82;2.40;;;;;;;23.56;35.30;100193.13;41539873;28;20090;-79
2023/05/11 17:06:33;;;;;;;2.65;1.80;;;;;;;23.47;35.95;100192.16;41498651;28;20155;-79
2023/05/11 17:26:36;;;;;;;3.60;1.73;;;;;;;23.43;35.89;100216.34;41517135;28;20037;-81
2023/05/11 17:46:37;;;;;;;4.82;1.67;;;;;;;23.37;35.65;100232.75;41497121;28;20173;-80
2023/05/11 18:06:37;;;;;;;1.92;1.50;;;;;;;23.30;35.73;100250.94;41465655;28;20049;-78
2023/05/11 18:26:38;;;;;;;2.70;1.60;;;;;;;23.28;35.17;100288.06;41497773;28;20050;-78
2023/05/11 18:46:39;;;;;;;3.63;1.40;;;;;;;23.23;35.21;100326.41;41532184;28;20093;-80
2023/05/11 19:06:40;;;;;;;2.97;1.60;;;;;;;23.20;36.04;100363.69;41534634;28;20046;-79
2023/05/11 19:26:41;;;;;;;3.97;1.73;;;;;;;23.20;36.15;100388.28;41573591;28;20607;-83
2023/05/11 19:46:45;;;;;;;5.10;1.33;;;;;;;23.06;37.27;100378.88;41560711;28;20099;-84
2023/05/11 20:06:45;;;;;;;1.90;1.40;;;;;;;23.05;37.49;100381.66;41563338;28;20042;-85
2023/05/11 20:26:46;;;;;;;3.17;1.80;;;;;;;23.08;37.98;100381.38;41567159;28;20037;-86
2023/05/11 20:46:46;;;;;;;4.35;2.25;;;;;;;23.01;38.40;100384.56;41544605;28;20046;-88
2023/05/11 21:06:47;;;;;;;4.32;2.40;;;;;;;23.04;38.81;100388.72;41526030;28;20457;-84
2023/05/11 21:26:47;;;;;;;2.53;2.20;;;;;;;23.03;39.10;100389.69;41532076;28;20103;-89
2023/05/11 21:46:48;;;;;;;3.45;2.40;;;;;;;23.08;39.81;100399.88;41513432;28;20077;-83
2023/05/11 22:06:48;;;;;;;2.80;2.08;;;;;;;23.00;39.58;100400.53;41491399;28;20053;-82
2023/05/11 22:26:49;;;;;;;2.42;1.95;;;;;;;22.95;39.97;100406.19;41514391;28;20505;-81
2023/05/11 22:46:49;;;;;;;2.10;1.70;;;;;;;22.92;40.18;100411.72;41521527;28;20050;-82
2023/05/11 23:06:50;;;;;;;1.83;1.65;;;;;;;22.86;40.46;100418.38;41532359;28;20176;-84
2023/05/11 23:26:52;;;;;;;2.40;1.85;;;;;;;22.85;40.23;100411.41;41540822;28;20038;-83
2023/05/11 23:46:52;;;;;;;2.38;1.88;;;;;;;22.85;40.57;100405.28;41522514;28;21050;-83
